Mitchell, Nebraska
Current Conditions -  °F | °C
As of 6:53 PM on Sunday 25 Jan 2015 (Local Time) from KBFF Reporting Station
Clear Clear  
Wind Chill: 34°   Ceiling: Unl
Heat Index: 40°   Visibility: 10mi
Dew Point: 32°   Wind: 9mph
Humidity: 73%   Direction: 300°WNW
Pressure: 30.1"   Gusts: NA
Location:  41.94°N, 103.81°W
Report Text: KBFF 260153Z AUTO 30008KT 10SM CLR 04/00 A3010 RMK AO2 SLP207 T00440000
Loading
Personal Weather Stations






























Interactive Weather Map New forecast layout! Learn more

10-Day Weather Forecast

Advertisements
Track Severe Weather on mobile